Skyforest, CA (92385)

4:05 AM PDT on August 20, 2014 (GMT -0700)
Cedar Ridge Estates | Change Station
CLOSE
Current Station
Personal Weather Station
Location: Lake Arrowhead, CA
Elevation: 5580 ft
Nearby Weather Stations

Elev 5580 ft 34.25 °N, 117.17 °W | Updated 4 seconds ago

Scattered Clouds
Scattered Clouds
58.8 °F
Feels Like 58.8 °F
N
4.0
Wind Variable Wind from SSE
Gusts 10.0 mph

Today
High -- | Low -- °F
--% Chance of Precip.
Yesterday
High -- | Low -- °F
Precip. -- in
6:13 AM 7:29 PM
Waning Crescent, 22% visible
Pressure 30.12 in
Visibility 10.0 miles
Clouds Scattered Clouds 11000 ft
Dew Point 23 °F
Humidity 25%
Rainfall 0.00 in
Snow Depth Not available.
UV 0 out of 12
Pollen 4.80 out of 12
Ozone Good
PM2.5 Good
Flu Activity Not available.
METAR KL35 201055Z AUTO 00000KT 10SM SCT110 11/02 A3012 RMK AO2

More Conditions Fewer Conditions

Pressure 30.12 in
Visibility 10.0 miles
Clouds Scattered Clouds 11000 ft
Dew Point 23 °F
Humidity 25%
Rainfall 0.00 in
Snow Depth Not available.
UV 0 out of 12
Pollen 4.80 out of 12
Ozone Good
PM2.5 Good
Flu Activity Not available.
METAR KL35 201055Z AUTO 00000KT 10SM SCT110 11/02 A3012 RMK AO2

More Conditions Fewer Conditions

10-Day Weather Forecast

Almanac

Astronomy

Aug. 20, 2014 Rise Set
Actual Time 6:13 AM PDT 7:29 PM PDT
Civil Twilight 5:47 AM PDT 7:56 PM PDT
Nautical Twilight 5:16 AM PDT 8:27 PM PDT
Astronomical Twilight 4:43 AM PDT 8:59 PM PDT
Moon 2:02 AM PDT 4:13 PM PDT
Length of Visible Light 14h 08m
Length of Day
13h 16m
Tomorrow will be 1m 56s shorter.
Waning Crescent, 22% of the Moon is Illuminated
Today
Waning Crescent
Aug 25
New
Sep 2
First Quarter
Sep 8
Full
Sep 15
Last Quarter

Today's Extremes

State Highs State Lows

Community

WunderPhotos

Upload Photos

1,745,606 photos uploaded!

Nearby

Air Quality

  Air Quality AQ Index Pollutant
Yesterday Moderate
OZONE
Yesterday Good
PM2.5
Current Good
PM2.5
Current Good
OZONE
Wednesday Moderate
OZONE
Wednesday Good
PM10
Wednesday Good
CO
Wednesday Good
NO2

Snow Depth

Station Depth Elevation
Leavitt Lake 0 in 9400 ft
Leavitt Meadows 1 in 7200 ft
Ebbetts Pass 0 in 8700 ft
Monitor Pass 0 in 8350 ft
Blue Lakes 0 in 8000 ft

Earthquake Activity

City Distance Mag. Time & Date
Malibu Beach, California 90 miles 3.4 10:03 AM PDT
2014-08-15
Yucca Valley, California 42 miles 3.8 8:57 PM PDT
2014-08-14
Salton City, California 98 miles 2.6 6:58 AM PDT
2014-08-14
Ojai, California 110 miles 2.6 8:43 PM PDT
2014-08-13
Minimum magnitude displayed is 2.5.

Coastal Water Temperatures

Place Temperature
No Stations Reporting

Nearby Weather Stations